createdAt,value
2017-11-21T06:54:32.256Z,0
2017-11-21T06:55:41.339Z,0
2017-11-21T06:56:49.872Z,0
2017-11-21T06:57:58.408Z,0
2017-11-21T06:59:07.523Z,0
2017-11-21T07:00:16.057Z,0
2017-11-21T07:01:24.861Z,0
2017-11-21T07:02:33.671Z,0
2017-11-21T07:03:42.208Z,0
2017-11-21T07:04:51.014Z,0
2017-11-21T07:05:59.553Z,0
2017-11-21T07:07:08.089Z,0
2017-11-21T07:08:16.629Z,0
2017-11-21T07:09:25.438Z,0
2017-11-21T07:10:34.520Z,0
2017-11-21T07:11:43.059Z,0
2017-11-21T07:12:51.608Z,0
2017-11-21T07:14:00.416Z,0
2017-11-21T07:15:09.226Z,5
2017-11-21T07:16:18.305Z,5
2017-11-21T07:17:27.125Z,5
2017-11-21T07:18:35.931Z,5
2017-11-21T07:19:45.283Z,5
2017-11-21T07:20:53.824Z,5
2017-11-21T07:22:02.633Z,5
2017-11-21T07:23:11.176Z,5
2017-11-21T07:24:20.297Z,5
2017-11-21T07:25:28.838Z,5
2017-11-21T07:26:37.686Z,5
2017-11-21T07:27:46.503Z,10
2017-11-21T07:28:55.050Z,10
2017-11-21T07:30:03.595Z,10
2017-11-21T07:31:12.686Z,15
2017-11-21T07:32:21.509Z,10
2017-11-21T07:33:30.060Z,5
2017-11-21T07:34:38.872Z,5
2017-11-21T07:35:47.954Z,10
2017-11-21T07:36:56.497Z,10
2017-11-21T07:38:05.849Z,10
2017-11-21T07:39:14.394Z,10
2017-11-21T07:40:23.207Z,10
2017-11-21T07:41:32.024Z,15
2017-11-21T07:42:40.564Z,15
2017-11-21T07:43:49.644Z,15
2017-11-21T07:44:58.186Z,15
2017-11-21T07:46:07.303Z,15
2017-11-21T07:47:16.905Z,15
2017-11-21T07:48:25.448Z,15
2017-11-21T07:49:34.339Z,15
2017-11-21T07:50:43.160Z,15
2017-11-21T07:51:51.976Z,15
2017-11-21T07:53:01.059Z,15
2017-11-21T07:54:10.212Z,15
2017-11-21T07:55:19.030Z,15
2017-11-21T07:56:27.868Z,15
2017-11-21T07:57:37.060Z,15
2017-11-21T07:58:45.884Z,15
2017-11-21T07:59:55.035Z,15
2017-11-21T08:01:03.858Z,15
2017-11-21T08:02:12.677Z,15
2017-11-21T08:03:21.496Z,15
2017-11-21T08:04:30.310Z,15
2017-11-21T08:05:38.853Z,15
2017-11-21T08:06:47.451Z,15
2017-11-21T08:07:56.307Z,25
2017-11-21T08:09:04.851Z,30
2017-11-21T08:10:13.392Z,35
2017-11-21T08:11:21.932Z,35
2017-11-21T08:12:30.745Z,35
2017-11-21T08:13:39.555Z,30
2017-11-21T08:14:48.100Z,30
2017-11-21T08:15:56.633Z,30
2017-11-21T08:17:05.180Z,30
2017-11-21T08:18:14.264Z,30
2017-11-21T08:19:23.086Z,30
2017-11-21T08:20:32.170Z,30
2017-11-21T08:21:41.526Z,30
2017-11-21T08:22:50.063Z,20
2017-11-21T08:23:58.883Z,15
2017-11-21T08:25:07.966Z,20
2017-11-21T08:26:16.780Z,20
2017-11-21T08:27:25.322Z,25
2017-11-21T08:28:33.863Z,30
2017-11-21T08:29:42.691Z,35
2017-11-21T08:30:51.777Z,40
2017-11-21T08:32:00.597Z,35
2017-11-21T08:33:09.301Z,30
2017-11-21T08:34:18.394Z,30
2017-11-21T08:35:26.936Z,25
2017-11-21T08:36:35.473Z,25
2017-11-21T08:37:44.032Z,20
2017-11-21T08:38:52.570Z,20
2017-11-21T08:40:01.462Z,25
2017-11-21T08:41:10.572Z,30
2017-11-21T08:42:19.117Z,30
2017-11-21T08:43:28.350Z,35
2017-11-21T08:44:36.899Z,35
2017-11-21T08:45:45.441Z,45
2017-11-21T08:46:54.529Z,50
2017-11-21T08:48:03.077Z,50
2017-11-21T08:49:12.165Z,45
2017-11-21T08:50:20.976Z,45
2017-11-21T08:51:29.790Z,45
2017-11-21T08:52:38.330Z,45
2017-11-21T08:53:47.058Z,50
2017-11-21T08:54:55.909Z,50
2017-11-21T08:56:04.450Z,50
2017-11-21T08:57:12.991Z,55
2017-11-21T08:58:22.091Z,55
2017-11-21T08:59:30.637Z,50
2017-11-21T09:00:39.181Z,50
2017-11-21T09:01:47.724Z,55
2017-11-21T09:02:56.818Z,65
2017-11-21T09:04:05.641Z,65
2017-11-21T09:05:14.467Z,75
2017-11-21T09:06:23.287Z,75
2017-11-21T09:07:31.851Z,70
2017-11-21T09:08:40.394Z,70
2017-11-21T09:09:49.203Z,65
2017-11-21T09:10:57.948Z,65
2017-11-21T09:12:06.765Z,65
2017-11-21T09:13:16.011Z,60
2017-11-21T09:14:25.108Z,60
2017-11-21T09:15:33.929Z,60
2017-11-21T09:16:42.751Z,55
2017-11-21T09:17:51.848Z,60
2017-11-21T09:19:00.937Z,50
2017-11-21T09:20:09.475Z,50
2017-11-21T09:21:18.017Z,45
2017-11-21T09:22:26.828Z,45
2017-11-21T09:23:35.680Z,55
2017-11-21T09:24:44.476Z,65
2017-11-21T09:25:53.019Z,65
2017-11-21T09:27:01.838Z,65
2017-11-21T09:28:10.962Z,70
2017-11-21T09:29:19.777Z,65
2017-11-21T09:30:28.321Z,65
2017-11-21T09:31:37.969Z,60
2017-11-21T09:32:47.335Z,65
2017-11-21T09:33:56.149Z,65
2017-11-21T09:35:04.690Z,65
2017-11-21T09:36:13.230Z,65
2017-11-21T09:37:22.314Z,75
2017-11-21T09:38:31.136Z,80
2017-11-21T09:39:40.225Z,95
2017-11-21T09:40:48.766Z,90
2017-11-21T09:41:57.581Z,90
2017-11-21T09:43:06.414Z,85
2017-11-21T09:44:15.271Z,80
2017-11-21T09:45:24.098Z,80
2017-11-21T09:46:32.911Z,85
2017-11-21T09:47:41.452Z,70
2017-11-21T09:48:49.996Z,65
2017-11-21T09:49:58.813Z,70
2017-11-21T09:51:08.187Z,80
2017-11-21T09:52:17.001Z,80
2017-11-21T09:53:25.822Z,85
2017-11-21T09:54:34.360Z,90
2017-11-21T09:55:43.173Z,90
2017-11-21T09:56:51.815Z,90
2017-11-21T09:58:00.362Z,95
2017-11-21T09:59:09.178Z,90
2017-11-21T10:00:17.988Z,105
2017-11-21T10:01:26.534Z,95
2017-11-21T10:02:35.351Z,110
2017-11-21T10:03:44.432Z,120
2017-11-21T10:04:52.978Z,145
2017-11-21T10:06:01.796Z,130
2017-11-21T10:07:10.613Z,125
2017-11-21T10:08:19.696Z,130
2017-11-21T10:09:28.506Z,115
2017-11-21T10:10:37.050Z,95
2017-11-21T10:11:45.863Z,80
2017-11-21T10:12:54.407Z,80
2017-11-21T10:14:03.227Z,75
2017-11-21T10:15:12.594Z,70
2017-11-21T10:16:21.689Z,70
2017-11-21T10:17:30.231Z,70
2017-11-21T10:18:39.059Z,70
2017-11-21T10:19:48.143Z,85
2017-11-21T10:20:56.955Z,75
2017-11-21T10:22:05.766Z,70
2017-11-21T10:23:14.578Z,80
2017-11-21T10:24:23.396Z,85
2017-11-21T10:25:31.937Z,90
2017-11-21T10:26:41.021Z,85
2017-11-21T10:27:49.842Z,85
2017-11-21T10:28:58.386Z,85
2017-11-21T10:30:07.479Z,85
2017-11-21T10:31:16.021Z,110
2017-11-21T10:32:24.841Z,90
2017-11-21T10:33:33.382Z,90
2017-11-21T10:34:41.924Z,80
2017-11-21T10:35:51.015Z,85
2017-11-21T10:36:59.825Z,85
2017-11-21T10:38:08.367Z,75
2017-11-21T10:39:17.192Z,65
2017-11-21T10:40:26.284Z,65
2017-11-21T10:41:35.095Z,80
2017-11-21T10:42:43.904Z,75
2017-11-21T10:43:52.997Z,70
2017-11-21T10:45:01.536Z,55
2017-11-21T10:46:10.078Z,60
2017-11-21T10:47:18.618Z,65
2017-11-21T10:48:27.433Z,60
2017-11-21T10:49:36.518Z,55
2017-11-21T10:50:45.605Z,60
2017-11-21T10:51:54.146Z,70
2017-11-21T10:53:02.955Z,70
2017-11-21T10:54:12.049Z,85
2017-11-21T10:55:20.591Z,75
2017-11-21T10:56:32.980Z,65
2017-11-21T10:57:42.341Z,60
2017-11-21T10:58:51.435Z,70
2017-11-21T10:59:59.982Z,60
2017-11-21T11:01:08.795Z,75
2017-11-21T11:02:17.883Z,80
2017-11-21T11:03:26.430Z,85
2017-11-21T11:04:35.256Z,95
2017-11-21T11:05:44.070Z,85
2017-11-21T11:06:52.906Z,85
2017-11-21T11:08:01.720Z,80
2017-11-21T11:09:10.810Z,80
2017-11-21T11:10:19.891Z,65
2017-11-21T11:11:28.980Z,70
2017-11-21T11:12:37.551Z,65
2017-11-21T11:13:46.613Z,55
2017-11-21T11:14:55.155Z,50
2017-11-21T11:16:03.701Z,55
2017-11-21T11:17:12.295Z,55
2017-11-21T11:18:21.118Z,50
2017-11-21T11:19:29.938Z,50
2017-11-21T11:20:38.772Z,60
2017-11-21T11:21:47.607Z,60
2017-11-21T11:22:56.433Z,50
2017-11-21T11:24:04.991Z,50
2017-11-21T11:25:13.814Z,50
2017-11-21T11:26:22.645Z,45
2017-11-21T11:27:31.739Z,50
2017-11-21T11:28:40.299Z,45
2017-11-21T11:29:48.853Z,50
2017-11-21T11:30:57.953Z,55
2017-11-21T11:32:07.868Z,65
2017-11-21T11:33:16.397Z,60
2017-11-21T11:34:24.944Z,65
2017-11-21T11:35:34.040Z,60
2017-11-21T11:36:42.572Z,65
2017-11-21T11:37:51.670Z,55
2017-11-21T11:39:00.481Z,75
2017-11-21T11:40:09.023Z,65
2017-11-21T11:41:17.835Z,70
2017-11-21T11:42:26.669Z,75
2017-11-21T11:43:35.482Z,70
2017-11-21T11:44:44.293Z,70
2017-11-21T11:45:52.832Z,65
2017-11-21T11:47:01.373Z,60
2017-11-21T11:48:09.936Z,55
2017-11-21T11:49:18.481Z,50
2017-11-21T11:50:27.868Z,45
2017-11-21T11:51:36.689Z,55
2017-11-21T11:52:45.229Z,55
2017-11-21T11:53:54.310Z,60
2017-11-21T11:55:02.894Z,50
2017-11-21T11:56:11.492Z,50
2017-11-21T11:57:20.381Z,45
2017-11-21T11:58:29.193Z,55
2017-11-21T11:59:38.023Z,55
2017-11-21T12:00:46.616Z,55
2017-11-21T12:01:55.665Z,45
2017-11-21T12:03:04.203Z,45
2017-11-21T12:04:13.026Z,40
2017-11-21T12:05:22.114Z,40
2017-11-21T12:06:31.301Z,35
2017-11-21T12:07:40.116Z,35
2017-11-21T12:08:48.989Z,30
2017-11-21T12:09:57.939Z,40
2017-11-21T12:11:06.480Z,35
2017-11-21T12:12:15.621Z,35
2017-11-21T12:13:24.488Z,45
2017-11-21T12:14:33.303Z,50
2017-11-21T12:15:41.859Z,45
2017-11-21T12:16:50.683Z,40
2017-11-21T12:17:59.222Z,55
2017-11-21T12:19:07.767Z,45
2017-11-21T12:20:16.582Z,40
2017-11-21T12:21:25.124Z,45
2017-11-21T12:22:34.178Z,45
2017-11-21T12:23:43.620Z,45
2017-11-21T12:24:52.542Z,45
2017-11-21T12:26:01.758Z,35
2017-11-21T12:27:10.436Z,35
2017-11-21T12:28:19.284Z,35
2017-11-21T12:29:30.006Z,35
2017-11-21T12:30:41.633Z,40
2017-11-21T12:31:50.550Z,40
2017-11-21T12:32:59.545Z,35
2017-11-21T12:34:08.356Z,45
2017-11-21T12:35:16.996Z,45
2017-11-21T12:36:26.191Z,50
2017-11-21T12:37:35.129Z,50
2017-11-21T12:38:43.964Z,60
2017-11-21T12:39:53.318Z,70
2017-11-21T12:41:02.332Z,70
2017-11-21T12:42:13.200Z,55
2017-11-21T12:43:22.305Z,60
2017-11-21T12:44:31.126Z,50
2017-11-21T12:45:39.930Z,40
2017-11-21T12:46:49.132Z,35
2017-11-21T12:47:57.676Z,35
2017-11-21T12:49:06.515Z,35
2017-11-21T12:50:15.058Z,35
2017-11-21T12:51:24.074Z,35
2017-11-21T12:52:32.889Z,30
2017-11-21T12:53:41.496Z,25
2017-11-21T12:54:50.308Z,25
2017-11-21T12:55:59.394Z,25
2017-11-21T12:57:08.497Z,25
2017-11-21T12:58:17.583Z,25
2017-11-21T12:59:26.401Z,30
2017-11-21T13:00:35.771Z,35
2017-11-21T13:01:44.307Z,35
2017-11-21T13:02:52.863Z,35
2017-11-21T13:04:01.411Z,35
2017-11-21T13:05:10.505Z,40
2017-11-21T13:06:19.316Z,35
2017-11-21T13:07:28.170Z,35
2017-11-21T13:08:36.982Z,30
2017-11-21T13:09:45.798Z,25
2017-11-21T13:10:54.612Z,20
2017-11-21T13:12:03.424Z,25
2017-11-21T13:13:11.961Z,20
2017-11-21T13:14:20.773Z,25
2017-11-21T13:15:29.581Z,25
2017-11-21T13:16:38.126Z,25
2017-11-21T13:17:47.233Z,20
2017-11-21T13:18:56.325Z,20
2017-11-21T13:20:05.136Z,20
2017-11-21T13:21:13.949Z,25
2017-11-21T13:22:22.490Z,25
2017-11-21T13:23:31.319Z,25
2017-11-21T13:24:40.134Z,25
2017-11-21T13:25:48.963Z,25
2017-11-21T13:26:57.784Z,25
2017-11-21T13:28:07.416Z,25
2017-11-21T13:29:16.517Z,25
2017-11-21T13:30:25.330Z,15
2017-11-21T13:31:34.450Z,20
2017-11-21T13:32:43.276Z,20
2017-11-21T13:33:51.826Z,15
2017-11-21T13:35:00.376Z,15
2017-11-21T13:36:09.741Z,15
2017-11-21T13:37:18.361Z,15
2017-11-21T13:38:27.438Z,15
2017-11-21T13:39:35.989Z,20
2017-11-21T13:40:45.083Z,15
2017-11-21T13:41:53.908Z,20
2017-11-21T13:43:03.549Z,15
2017-11-21T13:44:12.224Z,20
2017-11-21T13:45:21.074Z,15
2017-11-21T13:46:29.884Z,20
2017-11-21T13:47:38.979Z,25
2017-11-21T13:48:48.072Z,25
2017-11-21T13:49:57.230Z,15
2017-11-21T13:51:05.768Z,20
2017-11-21T13:52:14.585Z,20
2017-11-21T13:53:23.140Z,25
2017-11-21T13:54:32.220Z,25
2017-11-21T13:55:41.034Z,25
2017-11-21T13:56:49.579Z,25
2017-11-21T13:57:58.394Z,15
2017-11-21T13:59:07.221Z,15
2017-11-21T14:00:16.480Z,10
2017-11-21T14:01:25.934Z,15
2017-11-21T14:02:35.004Z,10
2017-11-21T14:03:43.839Z,10
2017-11-21T14:04:53.425Z,10
2017-11-21T14:06:01.960Z,15
2017-11-21T14:07:10.501Z,10
2017-11-21T14:08:19.049Z,10
2017-11-21T14:09:27.862Z,10
2017-11-21T14:10:36.453Z,10
2017-11-21T14:11:44.992Z,10
2017-11-21T14:12:53.535Z,10
2017-11-21T14:14:02.347Z,10
2017-11-21T14:15:10.889Z,10
2017-11-21T14:16:19.701Z,10
2017-11-21T14:17:28.832Z,10
2017-11-21T14:18:37.645Z,10
2017-11-21T14:19:46.187Z,10
2017-11-21T14:20:54.739Z,10
2017-11-21T14:22:03.328Z,10
2017-11-21T14:23:12.410Z,10
2017-11-21T14:24:21.275Z,10
2017-11-21T14:25:30.089Z,10
2017-11-21T14:26:38.631Z,10
2017-11-21T14:27:47.474Z,10
2017-11-21T14:28:56.564Z,10
2017-11-21T14:30:05.216Z,10
2017-11-21T14:31:14.067Z,10
2017-11-21T14:32:23.151Z,10
2017-11-21T14:33:32.235Z,10
2017-11-21T14:34:41.342Z,5
2017-11-21T14:35:50.493Z,5
2017-11-21T14:36:59.334Z,5
2017-11-21T14:38:08.437Z,10
2017-11-21T14:39:17.263Z,5
2017-11-21T14:40:26.084Z,5
2017-11-21T14:41:34.632Z,5
2017-11-21T14:42:43.719Z,5
2017-11-21T14:43:52.266Z,5
2017-11-21T14:45:01.098Z,5
2017-11-21T14:46:09.637Z,10
2017-11-21T14:47:18.181Z,5
2017-11-21T14:48:26.824Z,5
2017-11-21T14:49:35.637Z,5
2017-11-21T14:50:44.445Z,5
2017-11-21T14:51:53.730Z,5
2017-11-21T14:53:02.815Z,5
2017-11-21T14:54:11.356Z,5
2017-11-21T14:55:20.164Z,5
2017-11-21T14:56:28.975Z,5
2017-11-21T14:57:37.837Z,5
2017-11-21T14:58:46.686Z,5
2017-11-21T14:59:55.247Z,5
2017-11-21T15:01:03.791Z,5
2017-11-21T15:02:12.609Z,5
2017-11-21T15:03:21.709Z,5
2017-11-21T15:04:30.264Z,5
2017-11-21T15:05:39.091Z,5
2017-11-21T15:06:47.637Z,5
2017-11-21T15:07:56.458Z,5
2017-11-21T15:09:05.831Z,5
2017-11-21T15:10:14.916Z,5
2017-11-21T15:11:24.014Z,5
2017-11-21T15:12:33.107Z,5
2017-11-21T15:13:41.672Z,5
2017-11-21T15:14:50.791Z,0
2017-11-21T15:15:59.347Z,0
2017-11-21T15:17:07.886Z,0
2017-11-21T15:18:16.984Z,0
2017-11-21T15:19:25.802Z,0
2017-11-21T15:20:34.621Z,0
2017-11-21T15:21:43.165Z,0
2017-11-21T15:22:51.716Z,0
2017-11-21T15:24:00.265Z,0
2017-11-21T15:25:09.082Z,0
2017-11-21T15:26:17.625Z,0
2017-11-21T15:27:26.167Z,0
2017-11-21T15:28:34.716Z,0
2017-11-21T15:29:43.532Z,0
2017-11-21T15:30:52.940Z,0
2017-11-21T15:32:01.757Z,0
2017-11-21T15:33:10.566Z,0
2017-11-21T15:34:19.395Z,0
2017-11-21T15:35:27.943Z,0
2017-11-21T15:36:36.482Z,0
2017-11-21T15:37:45.036Z,0
2017-11-21T15:38:53.624Z,0
2017-11-21T15:40:02.248Z,0
2017-11-21T15:41:11.411Z,0
2017-11-21T15:42:19.947Z,0
2017-11-21T15:43:29.050Z,0
2017-11-21T15:44:37.592Z,0
2017-11-21T15:45:46.890Z,0
2017-11-21T15:46:55.913Z,0
2017-11-21T15:48:04.651Z,0
2017-11-21T15:49:13.750Z,0
2017-11-21T15:50:22.565Z,0
2017-11-21T15:51:31.663Z,0
2017-11-21T15:52:40.205Z,0
2017-11-21T15:53:49.396Z,0
2017-11-21T15:54:57.937Z,0
2017-11-21T15:56:07.020Z,0
2017-11-21T15:57:16.102Z,0
2017-11-21T15:58:24.915Z,0
2017-11-21T15:59:33.758Z,0
2017-11-21T16:00:43.480Z,0
2017-11-21T16:01:52.570Z,0
2017-11-21T16:03:01.390Z,0
2017-11-21T16:04:09.934Z,0
2017-11-21T16:05:18.480Z,0
2017-11-21T16:06:27.021Z,0
2017-11-21T16:07:36.110Z,0
2017-11-21T16:08:44.929Z,0
2017-11-21T16:09:53.739Z,0
2017-11-21T16:11:02.621Z,0
2017-11-21T16:12:11.431Z,0
2017-11-21T16:13:20.681Z,0
2017-11-21T16:14:29.275Z,0
2017-11-21T16:15:38.098Z,0
2017-11-21T16:16:47.257Z,0
2017-11-21T16:17:56.076Z,0
2017-11-21T16:19:04.907Z,0
2017-11-21T16:20:13.450Z,0
2017-11-21T16:21:22.289Z,0
2017-11-21T16:22:30.825Z,0
2017-11-21T16:23:39.368Z,0
2017-11-21T16:24:47.919Z,0
2017-11-21T16:25:57.005Z,0
2017-11-21T16:27:05.576Z,0
2017-11-21T16:28:14.122Z,0
2017-11-21T16:29:22.665Z,0
2017-11-21T16:30:31.230Z,0
2017-11-21T16:31:40.044Z,0
2017-11-21T16:32:48.854Z,0
2017-11-21T16:33:57.668Z,0
2017-11-21T16:35:06.213Z,0
2017-11-21T16:36:14.754Z,0
2017-11-21T16:37:23.578Z,0
2017-11-21T16:38:32.114Z,0
2017-11-21T16:39:40.924Z,0
2017-11-21T16:40:50.013Z,0
2017-11-21T16:41:58.561Z,0
2017-11-21T16:43:07.097Z,0
2017-11-21T16:44:16.179Z,0
2017-11-21T16:45:24.994Z,0
2017-11-21T16:46:34.082Z,0
2017-11-21T16:47:42.629Z,0
2017-11-21T16:48:51.981Z,0
2017-11-21T16:50:00.797Z,0
2017-11-21T16:51:09.876Z,0
2017-11-21T16:52:18.428Z,0
2017-11-21T16:53:27.022Z,0
2017-11-21T16:54:35.837Z,0
2017-11-21T16:55:44.379Z,0
2017-11-21T16:56:53.194Z,0
2017-11-21T16:58:02.279Z,0
2017-11-21T16:59:13.885Z,0
2017-11-21T17:00:22.715Z,0
2017-11-21T17:01:31.255Z,0
2017-11-21T17:02:39.796Z,0
2017-11-21T17:03:48.887Z,0
2017-11-21T17:04:57.702Z,0
2017-11-21T17:06:06.783Z,0
2017-11-21T17:07:15.323Z,0
2017-11-21T17:08:23.867Z,0
2017-11-21T17:09:32.414Z,0
2017-11-21T17:10:41.771Z,0
2017-11-21T17:11:50.586Z,0
2017-11-21T17:12:59.128Z,0
2017-11-21T17:14:07.939Z,0
2017-11-21T17:15:16.761Z,0
2017-11-21T17:16:25.881Z,0
2017-11-21T17:17:34.693Z,0
2017-11-21T17:18:43.508Z,0
2017-11-21T17:19:52.051Z,0
2017-11-21T17:21:01.409Z,0
2017-11-21T17:22:10.226Z,0
2017-11-21T17:23:19.570Z,0
2017-11-21T17:24:28.381Z,0
2017-11-21T17:25:37.198Z,0
2017-11-21T17:26:46.282Z,0
2017-11-21T17:27:54.825Z,0
2017-11-21T17:29:03.445Z,0
2017-11-21T17:30:12.542Z,0
2017-11-21T17:31:21.896Z,0
2017-11-21T17:32:30.443Z,0
2017-11-21T17:33:39.259Z,0
2017-11-21T17:34:48.068Z,0
2017-11-21T17:35:57.149Z,0
2017-11-21T17:37:05.687Z,0
2017-11-21T17:38:14.496Z,0
2017-11-21T17:39:23.308Z,0
2017-11-21T17:40:32.118Z,0
2017-11-21T17:41:40.661Z,0
2017-11-21T17:42:49.743Z,0
2017-11-21T17:43:58.557Z,0
2017-11-21T17:45:07.378Z,0
2017-11-21T17:46:16.194Z,0
2017-11-21T17:47:25.276Z,0
2017-11-21T17:48:34.088Z,0
2017-11-21T17:49:43.190Z,0
2017-11-21T17:50:51.726Z,0
2017-11-21T17:52:00.857Z,0
2017-11-21T17:53:09.670Z,0
2017-11-21T17:54:18.209Z,0
2017-11-21T17:55:26.750Z,0
2017-11-21T17:56:35.297Z,0
2017-11-21T17:57:44.377Z,0
2017-11-21T17:58:52.921Z,0
2017-11-21T18:00:01.740Z,0
2017-11-21T18:01:10.279Z,0
2017-11-21T18:02:19.095Z,0
2017-11-21T18:03:28.181Z,0
2017-11-21T18:04:37.001Z,0
2017-11-21T18:05:46.059Z,0
2017-11-21T18:06:54.624Z,0
2017-11-21T18:08:03.162Z,0
2017-11-21T18:09:11.705Z,0
2017-11-21T18:10:20.244Z,0
2017-11-21T18:11:28.787Z,0
2017-11-21T18:12:37.334Z,0
2017-11-21T18:13:46.141Z,0
2017-11-21T18:14:54.950Z,0
2017-11-21T18:16:03.763Z,0
2017-11-21T18:17:12.573Z,0
2017-11-21T18:18:21.133Z,0
2017-11-21T18:19:29.945Z,0
2017-11-21T18:20:38.756Z,0
2017-11-21T18:21:47.296Z,0
2017-11-21T18:22:55.835Z,0
2017-11-21T18:24:04.647Z,0
2017-11-21T18:25:13.467Z,0
2017-11-21T18:26:22.279Z,0
2017-11-21T18:27:31.090Z,0
2017-11-21T18:28:39.897Z,0
2017-11-21T18:29:48.945Z,0
2017-11-21T18:30:57.756Z,0
2017-11-21T18:32:06.294Z,0
2017-11-21T18:33:15.103Z,0
2017-11-21T18:34:23.914Z,0
2017-11-21T18:35:32.731Z,0
2017-11-21T18:36:41.821Z,0
2017-11-21T18:37:50.360Z,0
2017-11-21T18:38:58.905Z,0
2017-11-21T18:40:08.004Z,0
2017-11-21T18:41:16.812Z,0
2017-11-21T18:42:25.352Z,0
2017-11-21T18:43:33.899Z,0
2017-11-21T18:44:42.704Z,0
2017-11-21T18:45:51.798Z,0
2017-11-21T18:47:00.345Z,0
2017-11-21T18:48:09.149Z,0
2017-11-21T18:49:18.239Z,0
2017-11-21T18:50:27.591Z,0
2017-11-21T18:51:36.132Z,0
2017-11-21T18:52:44.948Z,0
2017-11-21T18:53:53.496Z,0
2017-11-21T18:55:02.314Z,0
2017-11-21T18:56:11.125Z,0
2017-11-21T18:57:19.955Z,0
2017-11-21T18:58:28.769Z,0
2017-11-21T18:59:37.371Z,0
2017-11-21T19:00:46.462Z,0
2017-11-21T19:01:55.264Z,0
2017-11-21T19:03:04.368Z,0
2017-11-21T19:04:12.906Z,0
2017-11-21T19:05:22.026Z,0
2017-11-21T19:06:30.571Z,0
2017-11-21T19:07:39.112Z,0
2017-11-21T19:08:47.652Z,0
2017-11-21T19:09:56.466Z,0
2017-11-21T19:11:05.109Z,0
2017-11-21T19:12:13.647Z,0
2017-11-21T19:13:22.183Z,0
2017-11-21T19:14:31.018Z,0
2017-11-21T19:15:39.560Z,0
2017-11-21T19:16:48.373Z,0
2017-11-21T19:17:57.453Z,0
2017-11-21T19:19:06.270Z,0
2017-11-21T19:20:15.072Z,0
2017-11-21T19:21:24.007Z,0
2017-11-21T19:22:33.089Z,0
2017-11-21T19:23:42.174Z,0
2017-11-21T19:24:50.717Z,0
2017-11-21T19:25:59.528Z,0
2017-11-21T19:27:08.617Z,0
2017-11-21T19:28:17.703Z,0
2017-11-21T19:29:26.790Z,0
2017-11-21T19:30:36.145Z,0
2017-11-21T19:31:44.953Z,0
2017-11-21T19:32:53.768Z,0
2017-11-21T19:34:02.589Z,0
2017-11-21T19:35:11.128Z,0
2017-11-21T19:36:19.667Z,0
2017-11-21T19:37:28.475Z,0
2017-11-21T19:38:37.288Z,0
2017-11-21T19:39:45.828Z,0
2017-11-21T19:40:54.913Z,0
2017-11-21T19:42:03.457Z,0
2017-11-21T19:43:12.549Z,0
2017-11-21T19:44:21.543Z,0
2017-11-21T19:45:30.648Z,0
2017-11-21T19:46:39.490Z,0
2017-11-21T19:47:48.059Z,0
2017-11-21T19:48:56.945Z,0
2017-11-21T19:50:06.320Z,0
2017-11-21T19:51:15.511Z,0
2017-11-21T19:52:24.071Z,0
2017-11-21T19:53:32.886Z,0
2017-11-21T19:54:41.705Z,0
2017-11-21T19:55:50.525Z,0
2017-11-21T19:56:59.339Z,0
2017-11-21T19:58:07.886Z,0
2017-11-21T19:59:16.714Z,0
2017-11-21T20:00:25.506Z,0
2017-11-21T20:01:34.047Z,0
2017-11-21T20:02:43.198Z,0
2017-11-21T20:03:52.284Z,0
2017-11-21T20:05:01.385Z,0
2017-11-21T20:06:10.199Z,0
2017-11-21T20:07:18.739Z,0
2017-11-21T20:08:27.822Z,0
2017-11-21T20:09:36.369Z,0
2017-11-21T20:10:45.462Z,0
2017-11-21T20:11:53.997Z,0
2017-11-21T20:13:02.536Z,0
2017-11-21T20:14:11.622Z,0
2017-11-21T20:15:20.434Z,0
2017-11-21T20:16:29.245Z,0
2017-11-21T20:17:38.596Z,0
2017-11-21T20:18:47.681Z,0
2017-11-21T20:19:56.518Z,0
2017-11-21T20:21:05.335Z,0
2017-11-21T20:22:13.878Z,0
2017-11-21T20:23:22.966Z,0
2017-11-21T20:24:31.781Z,0
2017-11-21T20:25:40.322Z,0
2017-11-21T20:26:48.861Z,0
2017-11-21T20:27:57.676Z,0
2017-11-21T20:29:06.501Z,0
2017-11-21T20:30:15.316Z,0
2017-11-21T20:31:23.892Z,0
2017-11-21T20:32:32.435Z,0
2017-11-21T20:33:41.247Z,0
2017-11-21T20:34:50.055Z,0
2017-11-21T20:35:59.143Z,0
2017-11-21T20:37:07.956Z,0
2017-11-21T20:38:16.775Z,0
2017-11-21T20:39:25.316Z,0
2017-11-21T20:40:34.149Z,0
2017-11-21T20:41:42.667Z,0
2017-11-21T20:42:51.753Z,0
2017-11-21T20:44:00.569Z,0
2017-11-21T20:45:09.385Z,0
2017-11-21T20:46:18.254Z,0
2017-11-21T20:47:27.077Z,0
2017-11-21T20:48:35.618Z,0
2017-11-21T20:49:44.426Z,0
2017-11-21T20:50:52.964Z,0
2017-11-21T20:52:01.503Z,0
2017-11-21T20:53:10.042Z,0
2017-11-21T20:54:19.124Z,0
2017-11-21T20:55:27.943Z,0
2017-11-21T20:56:36.488Z,0
2017-11-21T20:57:45.300Z,0
2017-11-21T20:58:54.110Z,0
2017-11-21T21:00:02.651Z,0
2017-11-21T21:01:11.462Z,0
2017-11-21T21:02:20.272Z,0
2017-11-21T21:03:29.079Z,0
2017-11-21T21:04:37.890Z,0
2017-11-21T21:05:46.702Z,0
2017-11-21T21:06:55.518Z,0
2017-11-21T21:08:04.062Z,0
2017-11-21T21:09:12.605Z,0
2017-11-21T21:10:21.416Z,0
2017-11-21T21:11:30.225Z,0
2017-11-21T21:12:39.318Z,0
2017-11-21T21:13:48.129Z,0
2017-11-21T21:14:57.213Z,0
2017-11-21T21:16:05.754Z,0
2017-11-21T21:17:14.294Z,0
2017-11-21T21:18:22.835Z,0
2017-11-21T21:19:31.465Z,0
2017-11-21T21:20:40.454Z,0
2017-11-21T21:21:49.004Z,0
2017-11-21T21:22:58.135Z,0
2017-11-21T21:24:06.945Z,0
2017-11-21T21:25:16.289Z,0
2017-11-21T21:26:24.836Z,0
2017-11-21T21:27:33.653Z,0
2017-11-21T21:28:42.238Z,0
2017-11-21T21:29:50.786Z,0
2017-11-21T21:30:59.879Z,0
2017-11-21T21:32:08.693Z,0
2017-11-21T21:33:17.230Z,0
2017-11-21T21:34:26.326Z,0
2017-11-21T21:35:35.137Z,0
2017-11-21T21:36:43.680Z,0
2017-11-21T21:37:53.030Z,0
2017-11-21T21:39:01.574Z,0
2017-11-21T21:40:10.116Z,0
2017-11-21T21:41:18.660Z,0
2017-11-21T21:42:28.020Z,0
2017-11-21T21:43:36.551Z,0
2017-11-21T21:44:45.662Z,0
2017-11-21T21:45:54.177Z,0
2017-11-21T21:47:03.299Z,0
2017-11-21T21:48:11.808Z,0
2017-11-21T21:49:20.900Z,0
2017-11-21T21:50:29.713Z,0
2017-11-21T21:51:38.252Z,0
2017-11-21T21:52:47.066Z,0
2017-11-21T21:53:56.159Z,0
2017-11-21T21:55:04.980Z,0
2017-11-21T21:56:13.519Z,0
2017-11-21T21:57:22.332Z,0
2017-11-21T21:58:30.870Z,0
2017-11-21T21:59:39.691Z,0
2017-11-21T22:00:49.051Z,0
2017-11-21T22:01:58.137Z,0
2017-11-21T22:03:06.948Z,0
2017-11-21T22:04:15.762Z,0
2017-11-21T22:05:24.570Z,0
2017-11-21T22:06:33.117Z,0
2017-11-21T22:07:41.941Z,0
2017-11-21T22:08:51.021Z,0
2017-11-21T22:10:00.102Z,0
2017-11-21T22:11:08.641Z,0
2017-11-21T22:12:17.182Z,0
2017-11-21T22:13:25.999Z,0
2017-11-21T22:14:34.811Z,0
2017-11-21T22:15:43.622Z,0
2017-11-21T22:16:52.162Z,0
2017-11-21T22:18:00.974Z,0
2017-11-21T22:19:10.611Z,0
2017-11-21T22:20:19.154Z,0
2017-11-21T22:21:27.975Z,0
2017-11-21T22:22:36.791Z,0
2017-11-21T22:23:45.330Z,0
2017-11-21T22:24:54.153Z,0
2017-11-21T22:26:03.231Z,0
2017-11-21T22:27:11.769Z,0
2017-11-21T22:28:20.584Z,0
2017-11-21T22:29:29.123Z,0
2017-11-21T22:30:38.210Z,0
2017-11-21T22:31:47.026Z,0
2017-11-21T22:32:56.105Z,0
2017-11-21T22:34:05.467Z,0
2017-11-21T22:35:14.550Z,0
2017-11-21T22:36:23.089Z,0
2017-11-21T22:37:32.165Z,0
2017-11-21T22:38:40.976Z,0
2017-11-21T22:39:49.784Z,0
2017-11-21T22:40:58.596Z,0
2017-11-21T22:42:07.138Z,0
2017-11-21T22:43:15.953Z,0
2017-11-21T22:44:24.491Z,0
2017-11-21T22:45:33.311Z,0
2017-11-21T22:46:42.397Z,0
2017-11-21T22:47:50.936Z,0
2017-11-21T22:48:59.754Z,0
2017-11-21T22:50:08.575Z,0
2017-11-21T22:51:17.384Z,0
2017-11-21T22:52:25.925Z,0
2017-11-21T22:53:35.279Z,0
2017-11-21T22:54:44.358Z,0
2017-11-21T22:55:53.458Z,0
2017-11-21T22:57:02.269Z,0
2017-11-21T22:58:10.809Z,0
2017-11-21T22:59:19.349Z,0
2017-11-21T23:00:27.892Z,0
2017-11-21T23:01:36.436Z,0
2017-11-21T23:02:45.249Z,0
2017-11-21T23:03:54.059Z,0
2017-11-21T23:05:02.870Z,0
2017-11-21T23:06:11.952Z,0
2017-11-21T23:07:21.033Z,0
2017-11-21T23:08:30.119Z,0
2017-11-21T23:09:38.978Z,0
2017-11-21T23:10:47.858Z,0
2017-11-21T23:11:56.396Z,0
2017-11-21T23:13:05.207Z,0
2017-11-21T23:14:14.021Z,0
2017-11-21T23:15:22.563Z,0
2017-11-21T23:16:31.648Z,0
2017-11-21T23:17:40.459Z,0
2017-11-21T23:18:49.274Z,0
2017-11-21T23:19:57.813Z,0
2017-11-21T23:21:06.623Z,0
2017-11-21T23:22:15.434Z,0
2017-11-21T23:23:23.977Z,0
2017-11-21T23:24:32.788Z,0
2017-11-21T23:25:41.601Z,0
2017-11-21T23:26:50.682Z,0
2017-11-21T23:27:59.761Z,0
2017-11-21T23:29:08.302Z,0
2017-11-21T23:30:17.112Z,0
2017-11-21T23:31:26.193Z,0
2017-11-21T23:32:34.732Z,0
2017-11-21T23:33:43.272Z,0
2017-11-21T23:34:51.909Z,0
2017-11-21T23:36:00.452Z,0